createdAt,value
2018-05-10T00:00:13.883Z,20.49
2018-05-10T00:02:41.506Z,20.40
2018-05-10T00:05:09.223Z,20.38
2018-05-10T00:07:36.820Z,20.42
2018-05-10T00:10:04.599Z,20.19
2018-05-10T00:12:32.198Z,20.33
2018-05-10T00:14:59.848Z,20.29
2018-05-10T00:17:27.442Z,20.11
2018-05-10T00:19:55.121Z,20.03
2018-05-10T00:22:22.843Z,19.95
2018-05-10T00:24:50.419Z,19.79
2018-05-10T00:27:18.048Z,19.77
2018-05-10T00:29:45.666Z,19.64
2018-05-10T00:32:13.358Z,19.55
2018-05-10T00:34:40.972Z,19.66
2018-05-10T00:37:08.622Z,19.74
2018-05-10T00:39:36.250Z,19.59
2018-05-10T00:42:04.003Z,19.39
2018-05-10T00:44:31.617Z,19.39
2018-05-10T00:46:59.313Z,19.45
2018-05-10T00:49:26.909Z,19.30
2018-05-10T00:51:54.673Z,19.32
2018-05-10T00:54:33.899Z,19.17
2018-05-10T00:57:01.604Z,19.22
2018-05-10T00:59:29.244Z,19.21
2018-05-10T01:01:56.897Z,19.19
2018-05-10T01:04:24.508Z,19.30
2018-05-10T01:06:52.169Z,19.17
2018-05-10T01:09:19.812Z,19.21
2018-05-10T01:11:47.536Z,19.22
2018-05-10T01:14:15.185Z,19.29
2018-05-10T01:16:42.803Z,19.28
2018-05-10T01:19:10.485Z,19.21
2018-05-10T01:21:38.089Z,19.11
2018-05-10T01:24:05.744Z,19.05
2018-05-10T01:26:33.374Z,18.85
2018-05-10T01:29:01.025Z,18.91
2018-05-10T01:31:28.637Z,18.80
2018-05-10T01:33:56.298Z,18.77
2018-05-10T01:36:23.906Z,18.79
2018-05-10T01:38:51.558Z,18.77
2018-05-10T01:41:19.203Z,18.56
2018-05-10T01:43:46.889Z,18.56
2018-05-10T01:46:14.486Z,18.57
2018-05-10T01:48:42.125Z,18.56
2018-05-10T01:51:09.723Z,18.65
2018-05-10T01:53:37.364Z,18.66
2018-05-10T01:56:05.022Z,18.65
2018-05-10T01:58:32.762Z,18.61
2018-05-10T02:01:00.394Z,18.77
2018-05-10T02:03:28.063Z,18.69
2018-05-10T02:05:55.711Z,18.58
2018-05-10T02:08:23.367Z,18.50
2018-05-10T02:10:51.088Z,18.37
2018-05-10T02:13:18.785Z,18.34
2018-05-10T02:15:46.509Z,18.16
2018-05-10T02:18:14.119Z,18.18
2018-05-10T02:20:41.802Z,18.22
2018-05-10T02:23:10.537Z,18.07
2018-05-10T02:25:39.211Z,18.08
2018-05-10T02:28:08.090Z,17.85
2018-05-10T02:30:35.821Z,17.95
2018-05-10T02:33:03.723Z,17.97
2018-05-10T02:35:31.514Z,17.89
2018-05-10T02:37:59.428Z,17.87
2018-05-10T02:40:27.085Z,17.84
2018-05-10T02:42:54.712Z,17.78
2018-05-10T02:45:22.407Z,17.76
2018-05-10T02:47:50.080Z,17.55
2018-05-10T02:50:17.734Z,17.45
2018-05-10T02:52:45.362Z,17.43
2018-05-10T02:55:13.226Z,17.41
2018-05-10T02:57:40.992Z,17.44
2018-05-10T03:00:08.609Z,17.32
2018-05-10T03:02:36.256Z,17.36
2018-05-10T03:05:03.861Z,17.33
2018-05-10T03:07:31.506Z,17.26
2018-05-10T03:09:59.117Z,17.13
2018-05-10T03:12:26.811Z,16.83
2018-05-10T03:14:54.446Z,16.84
2018-05-10T03:17:22.100Z,17.00
2018-05-10T03:19:49.710Z,17.00
2018-05-10T03:22:17.416Z,16.85
2018-05-10T03:24:45.031Z,16.88
2018-05-10T03:27:12.844Z,17.01
2018-05-10T03:29:40.453Z,16.97
2018-05-10T03:32:08.125Z,16.74
2018-05-10T03:34:35.725Z,16.70
2018-05-10T03:37:03.389Z,16.79
2018-05-10T03:39:31.109Z,16.72
2018-05-10T03:41:58.782Z,16.59
2018-05-10T03:44:26.432Z,16.72
2018-05-10T03:46:54.105Z,16.62
2018-05-10T03:49:21.711Z,16.54
2018-05-10T03:51:49.546Z,16.38
2018-05-10T03:54:17.184Z,16.35
2018-05-10T03:56:44.871Z,16.36
2018-05-10T03:59:12.594Z,16.51
2018-05-10T04:01:40.221Z,16.48
2018-05-10T04:07:23.001Z,16.30
2018-05-10T04:12:49.868Z,16.52
2018-05-10T04:15:17.476Z,16.44
2018-05-10T04:17:45.097Z,16.39
2018-05-10T04:20:12.805Z,16.32
2018-05-10T04:22:40.416Z,16.29
2018-05-10T04:25:08.076Z,16.20
2018-05-10T04:27:35.740Z,16.05
2018-05-10T04:30:03.463Z,16.06
2018-05-10T04:32:31.005Z,16.09
2018-05-10T04:34:58.746Z,16.12
2018-05-10T04:37:26.377Z,16.14
2018-05-10T04:39:54.031Z,16.08
2018-05-10T04:42:21.776Z,16.11
2018-05-10T04:44:49.285Z,15.80
2018-05-10T04:47:16.912Z,15.87
2018-05-10T04:49:44.832Z,15.79
2018-05-10T04:52:12.432Z,15.80
2018-05-10T04:54:40.077Z,15.75
2018-05-10T04:57:07.762Z,15.82
2018-05-10T04:59:35.433Z,15.76
2018-05-10T05:02:06.765Z,15.98
2018-05-10T05:04:34.414Z,15.91
2018-05-10T05:07:05.649Z,15.88
2018-05-10T05:09:33.510Z,15.84
2018-05-10T05:12:01.362Z,15.81
2018-05-10T05:14:29.092Z,15.68
2018-05-10T05:16:56.766Z,15.69
2018-05-10T05:19:24.528Z,15.83
2018-05-10T05:21:52.216Z,15.91
2018-05-10T05:24:19.890Z,15.88
2018-05-10T05:26:47.838Z,16.00
2018-05-10T05:29:15.473Z,15.89
2018-05-10T05:31:43.119Z,15.93
2018-05-10T05:34:10.873Z,16.12
2018-05-10T05:36:38.578Z,16.07
2018-05-10T05:39:06.190Z,15.89
2018-05-10T05:41:33.910Z,15.97
2018-05-10T05:44:02.368Z,16.02
2018-05-10T05:46:30.543Z,15.91
2018-05-10T05:48:58.428Z,15.83
2018-05-10T05:51:26.150Z,15.83
2018-05-10T05:53:53.853Z,15.55
2018-05-10T05:56:21.474Z,15.57
2018-05-10T05:58:49.448Z,15.50
2018-05-10T06:01:19.154Z,15.51
2018-05-10T06:03:47.121Z,15.56
2018-05-10T06:06:14.856Z,15.60
2018-05-10T06:08:42.938Z,15.65
2018-05-10T06:11:10.681Z,15.68
2018-05-10T06:13:38.418Z,15.70
2018-05-10T06:16:06.057Z,15.54
2018-05-10T06:18:33.703Z,15.64
2018-05-10T06:21:01.330Z,15.51
2018-05-10T06:23:29.249Z,15.73
2018-05-10T06:25:56.982Z,15.71
2018-05-10T06:28:24.695Z,15.83
2018-05-10T06:30:52.373Z,15.80
2018-05-10T06:33:19.986Z,15.89
2018-05-10T06:35:47.745Z,16.16
2018-05-10T06:38:15.521Z,16.28
2018-05-10T06:40:43.326Z,16.23
2018-05-10T06:43:11.002Z,16.21
2018-05-10T06:45:38.695Z,16.19
2018-05-10T06:48:06.433Z,16.43
2018-05-10T06:50:34.243Z,16.60
2018-05-10T06:53:02.999Z,16.58
2018-05-10T06:55:30.722Z,16.46
2018-05-10T06:57:58.467Z,16.59
2018-05-10T07:00:26.174Z,16.68
2018-05-10T07:02:54.476Z,16.63
2018-05-10T07:05:22.257Z,16.46
2018-05-10T07:07:49.886Z,16.46
2018-05-10T07:10:17.576Z,16.51
2018-05-10T07:12:45.245Z,16.76
2018-05-10T07:15:12.912Z,16.91
2018-05-10T07:17:40.590Z,16.91
2018-05-10T07:20:08.166Z,16.85
2018-05-10T07:22:35.874Z,16.97
2018-05-10T07:25:03.783Z,17.01
2018-05-10T07:27:31.528Z,16.88
2018-05-10T07:29:59.226Z,17.07
2018-05-10T07:32:26.866Z,17.02
2018-05-10T07:34:54.517Z,17.11
2018-05-10T07:37:22.482Z,16.87
2018-05-10T07:39:50.229Z,17.04
2018-05-10T07:42:17.925Z,16.89
2018-05-10T07:44:45.567Z,16.95
2018-05-10T07:47:13.334Z,16.92
2018-05-10T07:49:40.944Z,16.93
2018-05-10T07:52:08.643Z,16.83
2018-05-10T07:54:36.314Z,16.79
2018-05-10T07:57:04.127Z,16.87
2018-05-10T07:59:31.795Z,17.07
2018-05-10T08:01:59.455Z,17.19
2018-05-10T08:04:27.319Z,17.22
2018-05-10T08:06:55.029Z,17.19
2018-05-10T08:09:23.597Z,17.16
2018-05-10T08:11:51.382Z,17.26
2018-05-10T08:14:19.213Z,17.26
2018-05-10T08:16:46.832Z,17.55
2018-05-10T08:19:14.722Z,17.70
2018-05-10T08:21:42.351Z,17.78
2018-05-10T08:24:10.282Z,17.62
2018-05-10T08:26:38.002Z,17.42
2018-05-10T08:29:06.079Z,17.34
2018-05-10T08:31:34.042Z,17.41
2018-05-10T08:34:01.730Z,17.44
2018-05-10T08:36:29.378Z,17.40
2018-05-10T08:38:57.238Z,17.49
2018-05-10T08:41:25.085Z,17.55
2018-05-10T08:43:52.992Z,17.54
2018-05-10T08:46:21.555Z,17.56
2018-05-10T08:48:50.455Z,17.65
2018-05-10T08:51:18.225Z,17.55
2018-05-10T08:53:45.922Z,17.47
2018-05-10T08:56:13.899Z,17.41
2018-05-10T08:58:41.701Z,17.37
2018-05-10T09:01:09.626Z,17.44
2018-05-10T09:03:37.273Z,17.38
2018-05-10T09:06:04.949Z,17.45
2018-05-10T09:08:32.578Z,17.70
2018-05-10T09:11:00.316Z,17.58
2018-05-10T09:13:27.957Z,17.59
2018-05-10T09:15:55.625Z,17.59
2018-05-10T09:18:23.287Z,17.69
2018-05-10T09:20:51.156Z,17.68
2018-05-10T09:23:18.812Z,17.46
2018-05-10T09:25:46.449Z,17.28
2018-05-10T09:28:14.101Z,17.12
2018-05-10T09:30:41.735Z,16.75
2018-05-10T09:33:09.384Z,16.71
2018-05-10T09:35:37.071Z,16.99
2018-05-10T09:38:04.779Z,17.12
2018-05-10T09:40:32.475Z,17.04
2018-05-10T09:43:00.116Z,16.84
2018-05-10T09:45:27.732Z,16.73
2018-05-10T09:47:55.384Z,16.75
2018-05-10T09:50:23.009Z,16.74
2018-05-10T09:52:50.642Z,16.76
2018-05-10T09:55:18.241Z,16.77
2018-05-10T09:57:45.923Z,16.59
2018-05-10T10:00:18.966Z,16.63
2018-05-10T10:02:46.645Z,16.55
2018-05-10T10:05:14.312Z,16.60
2018-05-10T10:07:42.029Z,16.40
2018-05-10T10:10:09.665Z,16.58
2018-05-10T10:12:37.285Z,16.75
2018-05-10T10:15:05.247Z,16.88
2018-05-10T10:17:33.219Z,16.80
2018-05-10T10:20:00.863Z,16.73
2018-05-10T10:22:28.466Z,16.52
2018-05-10T10:24:56.189Z,16.48
2018-05-10T10:27:23.828Z,16.40
2018-05-10T10:29:51.498Z,16.27
2018-05-10T10:32:19.353Z,16.33
2018-05-10T10:34:47.215Z,16.30
2018-05-10T10:37:14.818Z,16.31
2018-05-10T10:39:42.551Z,16.21
2018-05-10T10:42:10.339Z,16.33
2018-05-10T10:44:38.218Z,16.29
2018-05-10T10:47:05.901Z,16.25
2018-05-10T10:49:33.733Z,16.09
2018-05-10T10:52:01.526Z,15.98
2018-05-10T10:54:29.374Z,15.93
2018-05-10T10:56:57.206Z,15.81
2018-05-10T10:59:24.919Z,15.72
2018-05-10T11:01:53.611Z,15.81
2018-05-10T11:04:21.248Z,15.92
2018-05-10T11:06:49.139Z,15.68
2018-05-10T11:09:16.816Z,15.57
2018-05-10T11:11:44.495Z,15.48
2018-05-10T11:14:12.153Z,15.46
2018-05-10T11:16:39.844Z,15.51
2018-05-10T11:19:07.609Z,15.52
2018-05-10T11:21:35.316Z,15.55
2018-05-10T11:24:03.208Z,15.56
2018-05-10T11:26:31.302Z,15.66
2018-05-10T11:29:00.833Z,15.62
2018-05-10T11:31:28.588Z,15.69
2018-05-10T11:33:56.514Z,15.72
2018-05-10T11:36:24.259Z,15.85
2018-05-10T11:38:52.021Z,15.72
2018-05-10T11:41:19.700Z,15.64
2018-05-10T11:43:47.546Z,15.62
2018-05-10T11:46:15.592Z,15.47
2018-05-10T11:48:43.772Z,15.40
2018-05-10T11:51:11.389Z,15.36
2018-05-10T11:53:39.428Z,15.40
2018-05-10T11:56:07.055Z,15.32
2018-05-10T11:58:34.726Z,15.32
2018-05-10T12:01:02.366Z,15.34
2018-05-10T12:03:30.071Z,15.41
2018-05-10T12:05:57.766Z,15.34
2018-05-10T12:08:25.655Z,15.40
2018-05-10T12:10:53.424Z,15.60
2018-05-10T12:13:21.093Z,15.65
2018-05-10T12:15:51.079Z,15.57
2018-05-10T12:18:19.456Z,15.65
2018-05-10T12:20:47.313Z,15.79
2018-05-10T12:23:16.219Z,15.56
2018-05-10T12:25:43.877Z,15.57
2018-05-10T12:28:11.624Z,15.42
2018-05-10T12:30:39.245Z,15.45
2018-05-10T12:33:07.232Z,15.53
2018-05-10T12:36:02.063Z,15.72
2018-05-10T12:38:29.857Z,15.61
2018-05-10T12:40:59.501Z,15.63
2018-05-10T12:43:27.582Z,15.48
2018-05-10T12:48:41.057Z,15.59
2018-05-10T12:51:08.994Z,15.47
2018-05-10T12:53:36.715Z,15.72
2018-05-10T12:56:04.517Z,15.69
2018-05-10T12:58:32.208Z,15.75
2018-05-10T13:01:01.135Z,15.86
2018-05-10T13:03:28.791Z,15.90
2018-05-10T13:05:56.606Z,15.97
2018-05-10T13:08:24.297Z,16.02
2018-05-10T13:10:52.022Z,16.01
2018-05-10T13:13:19.690Z,16.11
2018-05-10T13:15:47.539Z,16.11
2018-05-10T13:18:15.346Z,16.12
2018-05-10T13:20:43.004Z,16.31
2018-05-10T13:23:10.629Z,16.30
2018-05-10T13:25:38.323Z,16.41
2018-05-10T13:28:06.006Z,16.67
2018-05-10T13:30:33.666Z,16.63
2018-05-10T13:33:01.359Z,16.72
2018-05-10T13:35:29.060Z,16.55
2018-05-10T13:37:56.706Z,16.54
2018-05-10T13:40:24.350Z,16.55
2018-05-10T13:42:51.961Z,16.59
2018-05-10T13:45:19.732Z,16.75
2018-05-10T13:47:47.412Z,16.87
2018-05-10T13:50:15.101Z,16.85
2018-05-10T13:52:42.757Z,16.80
2018-05-10T13:55:10.377Z,16.74
2018-05-10T13:57:39.939Z,16.72
2018-05-10T14:00:07.644Z,16.71
2018-05-10T14:02:35.665Z,16.55
2018-05-10T14:05:03.340Z,16.59
2018-05-10T14:07:31.038Z,16.64
2018-05-10T14:10:00.390Z,16.61
2018-05-10T14:12:28.108Z,16.59
2018-05-10T14:14:55.788Z,16.72
2018-05-10T14:17:23.444Z,16.83
2018-05-10T14:19:51.353Z,16.90
2018-05-10T14:22:19.053Z,16.98
2018-05-10T14:24:46.684Z,17.08
2018-05-10T14:27:14.349Z,17.03
2018-05-10T14:29:42.069Z,16.92
2018-05-10T14:32:09.781Z,16.95
2018-05-10T14:34:37.410Z,17.00
2018-05-10T14:37:05.186Z,17.12
2018-05-10T14:39:33.027Z,17.30
2018-05-10T14:42:00.690Z,17.28
2018-05-10T14:44:28.470Z,17.32
2018-05-10T14:46:56.316Z,17.38
2018-05-10T14:49:24.017Z,17.57
2018-05-10T14:51:51.668Z,17.86
2018-05-10T14:54:19.343Z,18.39
2018-05-10T14:56:47.018Z,19.16
2018-05-10T14:59:14.688Z,19.65
2018-05-10T15:01:42.308Z,19.72
2018-05-10T15:04:10.032Z,20.33
2018-05-10T15:06:37.648Z,20.55
2018-05-10T15:09:05.449Z,20.89
2018-05-10T15:11:33.137Z,21.22
2018-05-10T15:14:00.790Z,21.31
2018-05-10T15:16:28.404Z,21.66
2018-05-10T15:18:56.175Z,21.92
2018-05-10T15:21:25.389Z,22.12
2018-05-10T15:23:53.192Z,21.88
2018-05-10T15:26:20.926Z,21.46
2018-05-10T15:28:50.250Z,21.06
2018-05-10T15:31:17.975Z,20.98
2018-05-10T15:33:45.606Z,20.55
2018-05-10T15:36:13.293Z,20.72
2018-05-10T15:38:40.951Z,21.23
2018-05-10T15:41:08.671Z,21.24
2018-05-10T15:43:37.282Z,20.92
2018-05-10T15:46:04.915Z,20.44
2018-05-10T15:48:32.594Z,19.81
2018-05-10T15:51:00.254Z,20.10
2018-05-10T15:53:27.958Z,20.51
2018-05-10T15:55:55.611Z,20.61
2018-05-10T15:58:23.233Z,20.06
2018-05-10T16:00:50.890Z,19.74
2018-05-10T16:03:18.570Z,19.40
2018-05-10T16:05:46.164Z,19.39
2018-05-10T16:08:13.807Z,19.60
2018-05-10T16:10:41.409Z,19.40
2018-05-10T16:13:09.065Z,19.16
2018-05-10T16:15:36.848Z,19.07
2018-05-10T16:18:04.481Z,18.92
2018-05-10T16:20:32.094Z,18.94
2018-05-10T16:22:59.753Z,18.83
2018-05-10T16:25:27.387Z,18.76
2018-05-10T16:27:55.068Z,18.83
2018-05-10T16:30:22.811Z,18.61
2018-05-10T16:32:50.579Z,18.64
2018-05-10T16:35:18.136Z,18.62
2018-05-10T16:37:45.788Z,18.58
2018-05-10T16:40:13.400Z,18.55
2018-05-10T16:42:41.130Z,18.48
2018-05-10T16:45:08.730Z,18.45
2018-05-10T16:47:36.570Z,18.44
2018-05-10T16:50:04.161Z,18.34
2018-05-10T16:52:32.070Z,18.32
2018-05-10T16:54:59.673Z,18.32
2018-05-10T16:57:27.296Z,18.27
2018-05-10T16:59:54.960Z,18.32
2018-05-10T17:02:23.067Z,18.21
2018-05-10T17:04:50.905Z,18.16
2018-05-10T17:07:18.785Z,18.17
2018-05-10T17:09:46.486Z,18.17
2018-05-10T17:12:14.085Z,18.27
2018-05-10T17:14:41.777Z,18.21
2018-05-10T17:17:09.406Z,18.13
2018-05-10T17:19:37.039Z,18.12
2018-05-10T17:22:04.799Z,18.46
2018-05-10T17:24:32.485Z,18.62
2018-05-10T17:27:00.097Z,18.62
2018-05-10T17:29:27.861Z,19.09
2018-05-10T17:31:55.493Z,19.09
2018-05-10T17:34:23.161Z,19.17
2018-05-10T17:36:50.829Z,19.41
2018-05-10T17:39:18.459Z,19.09
2018-05-10T17:41:46.199Z,19.09
2018-05-10T17:44:13.838Z,19.16
2018-05-10T17:46:41.496Z,19.38
2018-05-10T17:49:09.167Z,19.59
2018-05-10T17:51:36.865Z,19.65
2018-05-10T17:54:04.492Z,19.58
2018-05-10T17:56:32.143Z,19.21
2018-05-10T17:58:59.784Z,19.18
2018-05-10T18:01:27.560Z,19.23
2018-05-10T18:03:55.784Z,19.04
2018-05-10T18:06:23.490Z,19.04
2018-05-10T18:08:51.112Z,18.67
2018-05-10T18:11:18.794Z,18.52
2018-05-10T18:13:46.657Z,18.42
2018-05-10T18:16:14.238Z,18.25
2018-05-10T18:18:41.896Z,18.29
2018-05-10T18:21:09.608Z,18.24
2018-05-10T18:23:37.259Z,18.01
2018-05-10T18:26:04.866Z,18.01
2018-05-10T18:28:32.529Z,18.05
2018-05-10T18:31:00.148Z,17.97
2018-05-10T18:33:27.907Z,17.89
2018-05-10T18:35:55.534Z,17.96
2018-05-10T18:38:23.170Z,17.85
2018-05-10T18:40:50.838Z,17.89
2018-05-10T18:43:18.533Z,17.88
2018-05-10T18:45:46.199Z,17.59
2018-05-10T18:48:13.863Z,17.56
2018-05-10T18:50:41.657Z,17.59
2018-05-10T18:53:09.333Z,17.45
2018-05-10T18:55:36.967Z,17.51
2018-05-10T18:58:04.578Z,17.49
2018-05-10T19:00:32.253Z,17.61
2018-05-10T19:02:59.891Z,17.61
2018-05-10T19:05:27.536Z,17.65
2018-05-10T19:07:55.152Z,17.64
2018-05-10T19:10:22.830Z,17.72
2018-05-10T19:12:50.498Z,17.55
2018-05-10T19:15:18.282Z,17.36
2018-05-10T19:17:45.805Z,17.23
2018-05-10T19:20:13.553Z,17.21
2018-05-10T19:22:41.261Z,17.16
2018-05-10T19:25:08.953Z,17.12
2018-05-10T19:27:36.601Z,16.97
2018-05-10T19:30:04.493Z,16.87
2018-05-10T19:32:32.226Z,16.85
2018-05-10T19:34:59.833Z,16.83
2018-05-10T19:37:27.482Z,16.76
2018-05-10T19:39:55.146Z,16.86
2018-05-10T19:42:22.796Z,16.80
2018-05-10T19:44:50.423Z,16.79
2018-05-10T19:47:18.097Z,16.66
2018-05-10T19:49:45.747Z,16.66
2018-05-10T19:52:13.386Z,16.66
2018-05-10T19:54:41.009Z,16.56
2018-05-10T19:57:08.657Z,16.76
2018-05-10T19:59:36.321Z,16.59
2018-05-10T20:02:03.955Z,16.72
2018-05-10T20:04:31.633Z,16.88
2018-05-10T20:06:59.285Z,16.88
2018-05-10T20:09:26.897Z,16.65
2018-05-10T20:11:54.569Z,16.56
2018-05-10T20:14:22.246Z,16.49
2018-05-10T20:16:49.889Z,16.47
2018-05-10T20:19:17.582Z,16.37
2018-05-10T20:21:45.204Z,16.34
2018-05-10T20:24:12.977Z,16.16
2018-05-10T20:26:40.607Z,16.07
2018-05-10T20:29:08.277Z,15.94
2018-05-10T20:31:35.894Z,15.90
2018-05-10T20:34:03.526Z,15.90
2018-05-10T20:36:31.234Z,15.91
2018-05-10T20:38:58.957Z,15.89
2018-05-10T20:41:26.594Z,15.94
2018-05-10T20:43:54.262Z,15.89
2018-05-10T20:46:22.007Z,15.80
2018-05-10T20:48:49.638Z,15.78
2018-05-10T20:51:17.294Z,15.75
2018-05-10T20:53:45.008Z,15.72
2018-05-10T20:56:12.638Z,15.62
2018-05-10T20:58:40.286Z,15.69
2018-05-10T21:01:07.923Z,15.62
2018-05-10T21:03:35.719Z,15.57
2018-05-10T21:06:03.425Z,15.57
2018-05-10T21:08:31.387Z,15.48
2018-05-10T21:10:59.029Z,15.48
2018-05-10T21:13:26.670Z,15.45
2018-05-10T21:15:54.375Z,15.50
2018-05-10T21:18:22.131Z,15.40
2018-05-10T21:20:49.762Z,15.34
2018-05-10T21:23:17.431Z,15.24
2018-05-10T21:25:45.046Z,15.23
2018-05-10T21:28:12.693Z,15.21
2018-05-10T21:30:40.630Z,15.21
2018-05-10T21:33:08.427Z,15.07
2018-05-10T21:35:36.188Z,14.95
2018-05-10T21:38:04.006Z,14.94
2018-05-10T21:40:31.801Z,14.92
2018-05-10T21:42:59.471Z,14.89
2018-05-10T21:45:27.157Z,14.96
2018-05-10T21:47:54.769Z,14.72
2018-05-10T21:50:27.320Z,14.70
2018-05-10T21:52:54.993Z,14.67
2018-05-10T21:55:22.761Z,14.64
2018-05-10T21:57:50.411Z,14.75
2018-05-10T22:00:18.031Z,14.79
2018-05-10T22:02:45.734Z,14.75
2018-05-10T22:05:13.348Z,14.79
2018-05-10T22:07:41.001Z,14.84
2018-05-10T22:10:08.661Z,14.81
2018-05-10T22:12:36.605Z,14.78
2018-05-10T22:15:04.312Z,14.79
2018-05-10T22:17:32.019Z,14.90
2018-05-10T22:19:59.763Z,15.02
2018-05-10T22:22:27.450Z,15.06
2018-05-10T22:24:55.290Z,14.98
2018-05-10T22:27:23.088Z,14.95
2018-05-10T22:29:50.783Z,14.72
2018-05-10T22:32:18.555Z,14.69
2018-05-10T22:34:46.413Z,14.43
2018-05-10T22:37:14.006Z,14.33
2018-05-10T22:39:41.679Z,14.31
2018-05-10T22:42:09.295Z,14.18
2018-05-10T22:44:36.945Z,14.21
2018-05-10T22:47:04.561Z,14.20
2018-05-10T22:49:32.248Z,14.17
2018-05-10T22:51:59.868Z,14.10
2018-05-10T22:54:27.493Z,14.15
2018-05-10T22:56:55.100Z,14.09
2018-05-10T22:59:22.773Z,14.06
2018-05-10T23:01:50.390Z,13.94
2018-05-10T23:04:18.090Z,13.96
2018-05-10T23:06:45.808Z,13.93
2018-05-10T23:09:13.449Z,13.92
2018-05-10T23:11:41.067Z,13.91
2018-05-10T23:14:08.720Z,13.77
2018-05-10T23:16:36.341Z,13.90
2018-05-10T23:19:04.142Z,13.85
2018-05-10T23:21:31.918Z,13.84
2018-05-10T23:23:59.577Z,13.81
2018-05-10T23:26:27.339Z,13.79
2018-05-10T23:28:55.136Z,13.79
2018-05-10T23:31:23.024Z,13.81
2018-05-10T23:33:50.736Z,13.75
2018-05-10T23:36:18.525Z,13.67
2018-05-10T23:38:46.280Z,13.76
2018-05-10T23:41:14.053Z,13.70
2018-05-10T23:43:41.684Z,13.69
2018-05-10T23:46:09.318Z,13.67
2018-05-10T23:48:36.970Z,13.61
2018-05-10T23:51:04.597Z,13.51
2018-05-10T23:53:32.230Z,13.28
2018-05-10T23:55:59.928Z,13.19
2018-05-10T23:58:27.539Z,13.20
